Time;durP1;ratioP1;P1;durP2;ratioP2;P2;SDS_P1;SDS_P2;PMS_P1;PMS_P2;Temp;Humidity;BMP_temperature;BMP_pressure;BME280_temperature;BME280_humidity;BME280_pressure;Samples;Min_cycle;Max_cycle;Signal;HPM_P1;HPM_P2
2023/07/05 00:01:58;;;;;;;;;;;27.10;27.10;;;;;;21261987;27;19966;-57
2023/07/05 00:11:58;;;;;;;;;;;26.90;27.40;;;;;;21260911;27;20000;-56
2023/07/05 00:21:59;;;;;;;;;;;26.80;28.00;;;;;;21258640;27;19924;-56
2023/07/05 00:32:00;;;;;;;;;;;26.70;28.30;;;;;;21258318;27;19923;-56
2023/07/05 00:42:00;;;;;;;;;;;26.70;28.30;;;;;;21257001;27;20039;-56
2023/07/05 00:52:12;;;;;;;;;;;26.60;28.60;;;;;;21257047;27;20450;-57
2023/07/05 01:02:14;;;;;;;;;;;26.50;29.10;;;;;;21257380;27;19927;-56
2023/07/05 01:12:21;;;;;;;;;;;26.50;29.40;;;;;;21255004;27;19924;-56
2023/07/05 01:22:33;;;;;;;;;;;26.50;29.80;;;;;;21255296;27;19930;-56
2023/07/05 01:32:40;;;;;;;;;;;26.40;30.10;;;;;;21254409;27;20037;-56
2023/07/05 01:42:41;;;;;;;;;;;26.30;30.70;;;;;;21253815;27;20371;-56
2023/07/05 01:52:51;;;;;;;;;;;26.20;30.80;;;;;;21252381;27;20027;-56
2023/07/05 02:02:57;;;;;;;;;;;26.10;31.20;;;;;;21251885;27;20273;-55
2023/07/05 02:12:59;;;;;;;;;;;26.10;32.30;;;;;;21249511;27;19985;-56
2023/07/05 02:22:59;;;;;;;;;;;26.10;32.80;;;;;;21250221;27;19982;-55
2023/07/05 02:33:00;;;;;;;;;;;25.90;33.90;;;;;;21248715;27;19924;-56
2023/07/05 02:43:01;;;;;;;;;;;25.70;34.60;;;;;;21249557;27;20049;-56
2023/07/05 02:53:01;;;;;;;;;;;25.80;34.50;;;;;;21248962;27;19967;-56
2023/07/05 03:03:02;;;;;;;;;;;25.70;34.60;;;;;;21257001;27;19992;-56
2023/07/05 03:13:03;;;;;;;;;;;25.60;34.70;;;;;;21265637;27;19933;-57
2023/07/05 03:23:03;;;;;;;;;;;25.60;33.20;;;;;;21263353;27;20027;-56
2023/07/05 03:33:04;;;;;;;;;;;25.60;33.40;;;;;;21264247;27;19973;-56
2023/07/05 03:43:05;;;;;;;;;;;25.50;33.80;;;;;;21263268;27;19930;-55
2023/07/05 03:53:05;;;;;;;;;;;25.50;34.30;;;;;;21262496;27;19923;-56
2023/07/05 04:03:07;;;;;;;;;;;25.30;34.80;;;;;;21261353;27;19923;-56
2023/07/05 04:13:08;;;;;;;;;;;25.30;35.00;;;;;;21259132;27;19930;-56
2023/07/05 04:23:08;;;;;;;;;;;25.20;35.30;;;;;;21259726;27;20403;-57
2023/07/05 04:33:09;;;;;;;;;;;25.20;35.70;;;;;;21258051;27;20011;-56
2023/07/05 04:43:09;;;;;;;;;;;25.20;36.10;;;;;;21258898;27;20376;-56
2023/07/05 04:53:10;;;;;;;;;;;25.10;36.30;;;;;;21257338;27;19968;-55
2023/07/05 05:03:11;;;;;;;;;;;25.10;36.60;;;;;;21255908;27;19923;-56
2023/07/05 05:13:11;;;;;;;;;;;25.00;36.80;;;;;;21256452;27;20336;-56
2023/07/05 05:23:12;;;;;;;;;;;25.00;37.00;;;;;;21246009;27;19923;-55
2023/07/05 05:33:14;;;;;;;;;;;25.00;36.90;;;;;;21254665;27;20385;-57
2023/07/05 05:43:14;;;;;;;;;;;25.00;37.10;;;;;;21252724;27;19923;-56
2023/07/05 05:53:15;;;;;;;;;;;25.10;37.10;;;;;;21253660;27;20393;-56
2023/07/05 06:03:15;;;;;;;;;;;25.10;37.00;;;;;;21251097;27;19978;-55
2023/07/05 06:13:16;;;;;;;;;;;25.10;37.00;;;;;;21251503;27;20352;-56
2023/07/05 06:23:17;;;;;;;;;;;25.10;36.80;;;;;;21250076;27;20014;-55
2023/07/05 06:33:17;;;;;;;;;;;25.30;36.40;;;;;;21249712;27;20409;-56
2023/07/05 06:43:19;;;;;;;;;;;25.30;36.40;;;;;;21249573;27;19924;-57
2023/07/05 06:53:20;;;;;;;;;;;25.30;36.70;;;;;;21248901;27;19985;-57
2023/07/05 07:03:21;;;;;;;;;;;25.50;37.50;;;;;;21247549;28;19923;-56
2023/07/05 07:13:22;;;;;;;;;;;26.10;37.10;;;;;;21248751;28;20372;-56
2023/07/05 07:23:23;;;;;;;;;;;26.90;35.90;;;;;;21247124;28;19927;-55
2023/07/05 07:33:24;;;;;;;;;;;27.20;35.00;;;;;;21247724;28;20454;-58
2023/07/05 07:43:24;;;;;;;;;;;27.60;35.60;;;;;;21247816;28;20295;-57
2023/07/05 07:53:25;;;;;;;;;;;27.90;34.30;;;;;;21261654;27;19924;-58
2023/07/05 08:03:26;;;;;;;;;;;28.30;35.00;;;;;;21262526;27;20297;-60
2023/07/05 08:13:26;;;;;;;;;;;28.70;34.90;;;;;;21261676;27;19923;-57
2023/07/05 08:23:27;;;;;;;;;;;29.00;35.40;;;;;;21260400;27;19973;-58
2023/07/05 08:33:28;;;;;;;;;;;29.20;35.80;;;;;;21259966;27;19931;-59
2023/07/05 08:43:34;;;;;;;;;;;29.50;35.10;;;;;;21259213;27;20380;-57
2023/07/05 08:53:40;;;;;;;;;;;29.70;33.90;;;;;;21258737;27;20006;-58
2023/07/05 09:03:40;;;;;;;;;;;29.70;34.40;;;;;;21257376;27;19928;-58
2023/07/05 09:13:42;;;;;;;;;;;30.00;33.60;;;;;;21256306;27;19971;-58
2023/07/05 09:23:48;;;;;;;;;;;30.00;33.20;;;;;;21254957;27;20384;-56
2023/07/05 09:33:55;;;;;;;;;;;29.80;32.70;;;;;;21253591;27;19930;-59
2023/07/05 09:43:56;;;;;;;;;;;29.90;33.30;;;;;;21253028;27;20007;-56
2023/07/05 09:54:02;;;;;;;;;;;30.00;33.10;;;;;;21252875;27;20112;-59
2023/07/05 10:04:04;;;;;;;;;;;30.20;32.40;;;;;;21252339;27;19943;-57
2023/07/05 10:14:09;;;;;;;;;;;30.40;28.60;;;;;;21251504;27;19958;-59
2023/07/05 10:24:10;;;;;;;;;;;30.60;28.20;;;;;;21250468;27;20338;-57
2023/07/05 10:34:23;;;;;;;;;;;30.90;28.10;;;;;;21250160;27;19927;-58
2023/07/05 10:44:32;;;;;;;;;;;31.10;27.40;;;;;;21249301;27;19943;-58
2023/07/05 10:54:32;;;;;;;;;;;31.40;26.80;;;;;;21248433;27;19924;-57
2023/07/05 11:04:33;;;;;;;;;;;31.70;25.20;;;;;;21247551;28;19934;-59
2023/07/05 11:14:35;;;;;;;;;;;31.60;26.00;;;;;;21246552;28;19927;-57
2023/07/05 11:24:39;;;;;;;;;;;31.50;25.80;;;;;;21255228;27;20041;-60
2023/07/05 11:34:41;;;;;;;;;;;31.80;24.80;;;;;;21262283;27;19930;-58
2023/07/05 11:44:45;;;;;;;;;;;32.20;24.40;;;;;;21261213;27;20023;-58
2023/07/05 11:54:48;;;;;;;;;;;32.20;24.60;;;;;;21262865;27;19924;-59
2023/07/05 12:04:53;;;;;;;;;;;32.10;25.20;;;;;;21262399;27;19946;-58
2023/07/05 12:14:54;;;;;;;;;;;32.10;25.20;;;;;;21260307;27;19928;-58
2023/07/05 12:24:57;;;;;;;;;;;32.30;24.90;;;;;;21259031;27;19930;-58
2023/07/05 12:35:05;;;;;;;;;;;32.70;23.20;;;;;;21257576;27;19927;-58
2023/07/05 12:45:10;;;;;;;;;;;32.60;22.70;;;;;;21258355;27;19923;-58
2023/07/05 12:55:24;;;;;;;;;;;32.60;23.20;;;;;;21257522;27;19931;-59
2023/07/05 13:05:24;;;;;;;;;;;32.70;22.40;;;;;;21255478;27;19930;-59
2023/07/05 13:15:37;;;;;;;;;;;33.10;22.30;;;;;;21256662;27;19923;-58
2023/07/05 13:25:41;;;;;;;;;;;33.10;20.30;;;;;;21256400;27;19929;-58
2023/07/05 13:35:41;;;;;;;;;;;33.30;20.70;;;;;;21254622;27;20304;-57
2023/07/05 13:45:42;;;;;;;;;;;33.10;20.80;;;;;;21253753;27;19924;-57
2023/07/05 13:55:42;;;;;;;;;;;33.50;19.10;;;;;;21253153;27;19923;-58
2023/07/05 14:05:43;;;;;;;;;;;33.60;18.80;;;;;;21251851;27;19923;-57
2023/07/05 14:15:45;;;;;;;;;;;33.40;18.80;;;;;;21250117;27;20025;-56
2023/07/05 14:25:49;;;;;;;;;;;33.80;18.10;;;;;;21251389;27;19968;-58
2023/07/05 14:35:50;;;;;;;;;;;33.70;17.40;;;;;;21250719;27;19931;-57
2023/07/05 14:45:51;;;;;;;;;;;33.80;17.10;;;;;;21248150;27;19923;-61
2023/07/05 14:55:51;;;;;;;;;;;33.70;16.40;;;;;;21248187;27;19975;-58
2023/07/05 15:05:52;;;;;;;;;;;33.50;17.10;;;;;;21248581;28;19924;-60
2023/07/05 15:15:53;;;;;;;;;;;33.30;17.20;;;;;;21247747;28;20415;-61
2023/07/05 15:25:54;;;;;;;;;;;33.10;16.50;;;;;;21247058;28;19927;-59
2023/07/05 15:35:55;;;;;;;;;;;32.80;16.50;;;;;;21245878;28;19927;-63
2023/07/05 15:45:56;;;;;;;;;;;32.70;17.20;;;;;;21165762;28;19931;-63
2023/07/05 15:55:58;;;;;;;;;;;32.70;19.10;;;;;;21159358;28;19931;-58
2023/07/05 16:05:58;;;;;;;;;;;32.30;19.60;;;;;;21158731;28;19939;-58
2023/07/05 16:15:59;;;;;;;;;;;32.30;20.20;;;;;;21170509;28;20269;-58
2023/07/05 16:26:00;;;;;;;;;;;32.40;19.90;;;;;;21171587;28;19931;-59
2023/07/05 16:36:01;;;;;;;;;;;32.50;20.10;;;;;;21171241;28;19924;-61
2023/07/05 16:46:02;;;;;;;;;;;32.60;19.80;;;;;;21173720;28;20384;-61
2023/07/05 16:56:06;;;;;;;;;;;32.70;19.90;;;;;;21173242;28;19923;-62
2023/07/05 17:06:08;;;;;;;;;;;32.70;19.50;;;;;;21171687;28;20331;-60
2023/07/05 17:16:09;;;;;;;;;;;32.80;19.50;;;;;;21165243;28;19927;-61
2023/07/05 17:26:11;;;;;;;;;;;32.80;19.60;;;;;;21166509;28;20349;-61
2023/07/05 17:36:13;;;;;;;;;;;32.90;19.90;;;;;;21168348;28;19924;-60
2023/07/05 17:46:25;;;;;;;;;;;32.90;20.00;;;;;;21168744;28;20401;-61
2023/07/05 17:56:25;;;;;;;;;;;33.00;19.90;;;;;;21168102;28;20011;-61
2023/07/05 18:06:28;;;;;;;;;;;32.80;19.80;;;;;;21167196;28;20460;-60
2023/07/05 18:16:30;;;;;;;;;;;32.80;20.20;;;;;;21166669;28;19924;-59
2023/07/05 18:26:30;;;;;;;;;;;32.80;20.20;;;;;;21165204;28;20396;-60
2023/07/05 18:36:31;;;;;;;;;;;32.60;20.60;;;;;;21164153;28;19946;-62
2023/07/05 18:46:31;;;;;;;;;;;32.40;20.40;;;;;;21164938;28;19930;-60
2023/07/05 18:56:32;;;;;;;;;;;32.20;20.00;;;;;;21162918;28;20270;-60
2023/07/05 19:06:33;;;;;;;;;;;32.00;20.40;;;;;;21162747;28;19923;-60
2023/07/05 19:16:33;;;;;;;;;;;31.80;20.50;;;;;;21160808;28;19975;-60
2023/07/05 19:26:34;;;;;;;;;;;31.70;20.90;;;;;;21161016;28;20023;-60
2023/07/05 19:36:34;;;;;;;;;;;31.60;21.30;;;;;;21161064;28;20273;-61
2023/07/05 19:46:35;;;;;;;;;;;31.40;21.70;;;;;;21170126;28;19924;-60
2023/07/05 19:56:36;;;;;;;;;;;31.20;22.20;;;;;;21177174;28;19967;-60
2023/07/05 20:06:36;;;;;;;;;;;31.10;22.70;;;;;;21175848;28;19930;-61
2023/07/05 20:16:37;;;;;;;;;;;31.00;22.50;;;;;;21173427;28;19930;-60
2023/07/05 20:26:38;;;;;;;;;;;30.90;22.40;;;;;;21172728;28;19930;-60
2023/07/05 20:36:39;;;;;;;;;;;30.90;22.50;;;;;;21171918;28;19984;-62
2023/07/05 20:46:39;;;;;;;;;;;30.90;22.20;;;;;;21171546;28;20356;-60
2023/07/05 20:56:40;;;;;;;;;;;30.80;22.30;;;;;;21170388;28;19923;-60
2023/07/05 21:06:41;;;;;;;;;;;30.70;25.90;;;;;;21171227;28;19927;-59
2023/07/05 21:16:41;;;;;;;;;;;30.50;25.10;;;;;;21170577;28;19973;-59
2023/07/05 21:26:42;;;;;;;;;;;30.30;24.90;;;;;;21169859;28;20032;-59
2023/07/05 21:36:44;;;;;;;;;;;30.30;24.90;;;;;;21170411;28;20424;-59
2023/07/05 21:46:45;;;;;;;;;;;30.20;24.90;;;;;;21169178;28;19927;-60
2023/07/05 21:56:46;;;;;;;;;;;30.20;25.20;;;;;;21168253;28;20365;-60
2023/07/05 22:06:47;;;;;;;;;;;30.10;25.40;;;;;;21166402;28;20312;-59
2023/07/05 22:16:49;;;;;;;;;;;30.00;25.40;;;;;;21167444;28;19963;-59
2023/07/05 22:26:50;;;;;;;;;;;29.90;25.50;;;;;;21166438;28;20007;-61
2023/07/05 22:36:52;;;;;;;;;;;29.90;25.60;;;;;;21165578;28;20380;-59
2023/07/05 22:46:53;;;;;;;;;;;29.80;26.40;;;;;;21165431;28;19923;-58
2023/07/05 22:56:53;;;;;;;;;;;29.60;25.70;;;;;;21165069;28;19931;-57
2023/07/05 23:06:54;;;;;;;;;;;29.60;26.60;;;;;;21163957;28;19954;-58
2023/07/05 23:16:55;;;;;;;;;;;29.30;27.40;;;;;;21165293;28;19928;-58
2023/07/05 23:26:55;;;;;;;;;;;29.10;27.60;;;;;;21180310;28;20392;-59
2023/07/05 23:36:56;;;;;;;;;;;29.10;27.60;;;;;;21179895;28;19974;-59
2023/07/05 23:46:57;;;;;;;;;;;29.20;27.40;;;;;;21177925;28;19924;-59
2023/07/05 23:57:03;;;;;;;;;;;29.20;27.50;;;;;;21177839;28;20274;-59
